sensor_id;sensor_type;location;lat;lon;timestamp;P1;durP1;ratioP1;P2;durP2;ratioP2
22129;SDS011;11231;50.746;4.272;2023-09-18T00:01:22;12.63;;;6.80;;
22129;SDS011;11231;50.746;4.272;2023-09-18T00:03:54;14.70;;;6.60;;
22129;SDS011;11231;50.746;4.272;2023-09-18T00:06:20;11.60;;;6.43;;
22129;SDS011;11231;50.746;4.272;2023-09-18T00:08:48;13.70;;;6.90;;
22129;SDS011;11231;50.746;4.272;2023-09-18T00:11:16;13.00;;;7.30;;
22129;SDS011;11231;50.746;4.272;2023-09-18T00:13:42;14.47;;;7.97;;
22129;SDS011;11231;50.746;4.272;2023-09-18T00:16:08;13.63;;;6.97;;
22129;SDS011;11231;50.746;4.272;2023-09-18T00:18:37;14.27;;;7.10;;
22129;SDS011;11231;50.746;4.272;2023-09-18T00:21:03;15.03;;;7.90;;
22129;SDS011;11231;50.746;4.272;2023-09-18T00:23:31;10.83;;;7.00;;
22129;SDS011;11231;50.746;4.272;2023-09-18T00:26:00;13.20;;;7.40;;
22129;SDS011;11231;50.746;4.272;2023-09-18T00:28:26;14.90;;;7.90;;
22129;SDS011;11231;50.746;4.272;2023-09-18T00:30:55;16.70;;;7.67;;
22129;SDS011;11231;50.746;4.272;2023-09-18T00:33:21;14.73;;;8.13;;
22129;SDS011;11231;50.746;4.272;2023-09-18T00:35:50;19.00;;;8.27;;
22129;SDS011;11231;50.746;4.272;2023-09-18T00:38:17;17.27;;;8.33;;
22129;SDS011;11231;50.746;4.272;2023-09-18T00:40:44;16.13;;;8.53;;
22129;SDS011;11231;50.746;4.272;2023-09-18T00:43:10;18.03;;;8.90;;
22129;SDS011;11231;50.746;4.272;2023-09-18T00:45:41;14.43;;;8.00;;
22129;SDS011;11231;50.746;4.272;2023-09-18T00:48:09;15.37;;;8.60;;
22129;SDS011;11231;50.746;4.272;2023-09-18T00:50:36;14.93;;;8.30;;
22129;SDS011;11231;50.746;4.272;2023-09-18T00:53:09;16.03;;;8.27;;
22129;SDS011;11231;50.746;4.272;2023-09-18T00:55:39;14.07;;;8.10;;
22129;SDS011;11231;50.746;4.272;2023-09-18T00:58:05;13.97;;;7.90;;
22129;SDS011;11231;50.746;4.272;2023-09-18T01:00:33;15.93;;;8.43;;
22129;SDS011;11231;50.746;4.272;2023-09-18T01:03:00;14.73;;;7.53;;
22129;SDS011;11231;50.746;4.272;2023-09-18T01:05:27;12.47;;;7.20;;
22129;SDS011;11231;50.746;4.272;2023-09-18T01:07:53;14.90;;;7.67;;
22129;SDS011;11231;50.746;4.272;2023-09-18T01:10:20;12.90;;;7.23;;
22129;SDS011;11231;50.746;4.272;2023-09-18T01:12:53;12.27;;;6.80;;
22129;SDS011;11231;50.746;4.272;2023-09-18T01:15:30;13.17;;;7.03;;
22129;SDS011;11231;50.746;4.272;2023-09-18T01:18:00;11.47;;;6.83;;
22129;SDS011;11231;50.746;4.272;2023-09-18T01:20:28;10.80;;;6.50;;
22129;SDS011;11231;50.746;4.272;2023-09-18T01:22:56;13.80;;;6.83;;
22129;SDS011;11231;50.746;4.272;2023-09-18T01:25:22;13.23;;;6.60;;
22129;SDS011;11231;50.746;4.272;2023-09-18T01:27:51;12.40;;;7.03;;
22129;SDS011;11231;50.746;4.272;2023-09-18T01:30:20;10.70;;;6.77;;
22129;SDS011;11231;50.746;4.272;2023-09-18T01:32:54;13.63;;;6.40;;
22129;SDS011;11231;50.746;4.272;2023-09-18T01:35:22;14.30;;;6.53;;
22129;SDS011;11231;50.746;4.272;2023-09-18T01:37:57;12.33;;;6.57;;
22129;SDS011;11231;50.746;4.272;2023-09-18T01:40:26;12.93;;;6.60;;
22129;SDS011;11231;50.746;4.272;2023-09-18T01:42:52;13.93;;;6.80;;
22129;SDS011;11231;50.746;4.272;2023-09-18T01:45:19;14.70;;;7.03;;
22129;SDS011;11231;50.746;4.272;2023-09-18T01:47:45;12.63;;;7.47;;
22129;SDS011;11231;50.746;4.272;2023-09-18T01:50:11;15.33;;;8.17;;
22129;SDS011;11231;50.746;4.272;2023-09-18T01:52:38;13.87;;;7.73;;
22129;SDS011;11231;50.746;4.272;2023-09-18T01:55:04;14.57;;;7.73;;
22129;SDS011;11231;50.746;4.272;2023-09-18T01:57:31;14.53;;;7.80;;
22129;SDS011;11231;50.746;4.272;2023-09-18T01:59:57;12.37;;;7.87;;
22129;SDS011;11231;50.746;4.272;2023-09-18T02:02:23;14.93;;;8.20;;
22129;SDS011;11231;50.746;4.272;2023-09-18T02:04:51;13.40;;;8.23;;
22129;SDS011;11231;50.746;4.272;2023-09-18T02:07:17;15.47;;;7.70;;
22129;SDS011;11231;50.746;4.272;2023-09-18T02:09:51;14.50;;;7.53;;
22129;SDS011;11231;50.746;4.272;2023-09-18T02:12:20;14.73;;;7.53;;
22129;SDS011;11231;50.746;4.272;2023-09-18T02:14:47;15.47;;;7.67;;
22129;SDS011;11231;50.746;4.272;2023-09-18T02:17:16;12.37;;;7.23;;
22129;SDS011;11231;50.746;4.272;2023-09-18T02:19:50;14.33;;;7.57;;
22129;SDS011;11231;50.746;4.272;2023-09-18T02:22:16;14.07;;;6.70;;
22129;SDS011;11231;50.746;4.272;2023-09-18T02:24:46;11.53;;;6.70;;
22129;SDS011;11231;50.746;4.272;2023-09-18T02:27:12;14.80;;;7.37;;
22129;SDS011;11231;50.746;4.272;2023-09-18T02:29:38;13.50;;;6.73;;
22129;SDS011;11231;50.746;4.272;2023-09-18T02:32:04;12.13;;;6.00;;
22129;SDS011;11231;50.746;4.272;2023-09-18T02:34:30;12.93;;;6.77;;
22129;SDS011;11231;50.746;4.272;2023-09-18T02:36:58;14.40;;;6.83;;
22129;SDS011;11231;50.746;4.272;2023-09-18T02:39:25;11.43;;;6.47;;
22129;SDS011;11231;50.746;4.272;2023-09-18T02:41:53;15.67;;;6.13;;
22129;SDS011;11231;50.746;4.272;2023-09-18T02:44:19;10.87;;;5.63;;
22129;SDS011;11231;50.746;4.272;2023-09-18T02:46:47;14.43;;;5.93;;
22129;SDS011;11231;50.746;4.272;2023-09-18T02:49:14;12.37;;;5.40;;
22129;SDS011;11231;50.746;4.272;2023-09-18T02:51:40;9.03;;;4.90;;
22129;SDS011;11231;50.746;4.272;2023-09-18T02:54:06;12.03;;;5.33;;
22129;SDS011;11231;50.746;4.272;2023-09-18T02:56:32;10.77;;;5.37;;
22129;SDS011;11231;50.746;4.272;2023-09-18T02:59:02;14.03;;;5.47;;
22129;SDS011;11231;50.746;4.272;2023-09-18T03:01:28;10.03;;;4.83;;
22129;SDS011;11231;50.746;4.272;2023-09-18T03:03:55;9.23;;;4.57;;
22129;SDS011;11231;50.746;4.272;2023-09-18T03:06:23;10.40;;;4.83;;
22129;SDS011;11231;50.746;4.272;2023-09-18T03:08:49;10.80;;;4.90;;
22129;SDS011;11231;50.746;4.272;2023-09-18T03:11:16;10.30;;;4.70;;
22129;SDS011;11231;50.746;4.272;2023-09-18T03:13:50;13.40;;;5.03;;
22129;SDS011;11231;50.746;4.272;2023-09-18T03:16:18;8.83;;;4.27;;
22129;SDS011;11231;50.746;4.272;2023-09-18T03:18:45;10.77;;;4.60;;
22129;SDS011;11231;50.746;4.272;2023-09-18T03:21:17;11.53;;;4.53;;
22129;SDS011;11231;50.746;4.272;2023-09-18T03:23:46;8.10;;;4.20;;
22129;SDS011;11231;50.746;4.272;2023-09-18T03:26:11;8.97;;;4.27;;
22129;SDS011;11231;50.746;4.272;2023-09-18T03:28:37;7.53;;;3.73;;
22129;SDS011;11231;50.746;4.272;2023-09-18T03:31:04;10.17;;;3.43;;
22129;SDS011;11231;50.746;4.272;2023-09-18T03:33:33;7.43;;;3.27;;
22129;SDS011;11231;50.746;4.272;2023-09-18T03:38:32;7.27;;;3.57;;
22129;SDS011;11231;50.746;4.272;2023-09-18T03:41:02;8.10;;;3.13;;
22129;SDS011;11231;50.746;4.272;2023-09-18T03:43:28;9.80;;;3.40;;
22129;SDS011;11231;50.746;4.272;2023-09-18T03:45:54;7.77;;;2.90;;
22129;SDS011;11231;50.746;4.272;2023-09-18T03:48:21;7.43;;;2.80;;
22129;SDS011;11231;50.746;4.272;2023-09-18T03:50:49;8.43;;;3.03;;
22129;SDS011;11231;50.746;4.272;2023-09-18T03:53:17;8.67;;;2.83;;
22129;SDS011;11231;50.746;4.272;2023-09-18T03:55:47;5.77;;;2.50;;
22129;SDS011;11231;50.746;4.272;2023-09-18T03:58:14;6.57;;;2.63;;
22129;SDS011;11231;50.746;4.272;2023-09-18T04:00:43;5.57;;;2.57;;
22129;SDS011;11231;50.746;4.272;2023-09-18T04:03:11;7.13;;;2.77;;
22129;SDS011;11231;50.746;4.272;2023-09-18T04:05:43;5.27;;;2.27;;
22129;SDS011;11231;50.746;4.272;2023-09-18T04:08:10;7.07;;;2.57;;
22129;SDS011;11231;50.746;4.272;2023-09-18T04:13:27;7.23;;;2.00;;
22129;SDS011;11231;50.746;4.272;2023-09-18T04:15:53;7.23;;;2.17;;
22129;SDS011;11231;50.746;4.272;2023-09-18T04:18:22;5.07;;;2.00;;
22129;SDS011;11231;50.746;4.272;2023-09-18T04:20:55;6.00;;;2.10;;
22129;SDS011;11231;50.746;4.272;2023-09-18T04:23:25;4.63;;;1.93;;
22129;SDS011;11231;50.746;4.272;2023-09-18T04:25:53;6.67;;;1.87;;
22129;SDS011;11231;50.746;4.272;2023-09-18T04:28:21;6.43;;;1.83;;
22129;SDS011;11231;50.746;4.272;2023-09-18T04:30:49;6.83;;;1.90;;
22129;SDS011;11231;50.746;4.272;2023-09-18T04:33:22;4.17;;;1.90;;
22129;SDS011;11231;50.746;4.272;2023-09-18T04:35:53;6.13;;;1.80;;
22129;SDS011;11231;50.746;4.272;2023-09-18T04:38:20;4.10;;;1.53;;
22129;SDS011;11231;50.746;4.272;2023-09-18T04:40:46;3.83;;;1.57;;
22129;SDS011;11231;50.746;4.272;2023-09-18T04:43:15;5.27;;;2.00;;
22129;SDS011;11231;50.746;4.272;2023-09-18T04:45:54;4.40;;;1.60;;
22129;SDS011;11231;50.746;4.272;2023-09-18T04:48:20;7.47;;;1.90;;
22129;SDS011;11231;50.746;4.272;2023-09-18T04:51:13;4.87;;;2.00;;
22129;SDS011;11231;50.746;4.272;2023-09-18T04:53:44;5.20;;;1.90;;
22129;SDS011;11231;50.746;4.272;2023-09-18T04:56:11;6.47;;;1.70;;
22129;SDS011;11231;50.746;4.272;2023-09-18T04:58:37;5.30;;;1.70;;
22129;SDS011;11231;50.746;4.272;2023-09-18T05:01:09;3.93;;;1.73;;
22129;SDS011;11231;50.746;4.272;2023-09-18T05:03:38;4.07;;;1.70;;
22129;SDS011;11231;50.746;4.272;2023-09-18T05:06:04;4.87;;;1.60;;
22129;SDS011;11231;50.746;4.272;2023-09-18T05:08:30;7.57;;;1.90;;
22129;SDS011;11231;50.746;4.272;2023-09-18T05:11:15;2.97;;;1.67;;
22129;SDS011;11231;50.746;4.272;2023-09-18T05:13:42;4.53;;;1.97;;
22129;SDS011;11231;50.746;4.272;2023-09-18T05:16:08;5.23;;;1.80;;
22129;SDS011;11231;50.746;4.272;2023-09-18T05:18:39;5.10;;;2.07;;
22129;SDS011;11231;50.746;4.272;2023-09-18T05:21:10;6.97;;;2.10;;
22129;SDS011;11231;50.746;4.272;2023-09-18T05:23:36;4.17;;;1.73;;
22129;SDS011;11231;50.746;4.272;2023-09-18T05:26:02;4.07;;;1.90;;
22129;SDS011;11231;50.746;4.272;2023-09-18T05:28:28;6.07;;;1.93;;
22129;SDS011;11231;50.746;4.272;2023-09-18T05:30:57;7.30;;;1.87;;
22129;SDS011;11231;50.746;4.272;2023-09-18T05:33:23;5.23;;;2.10;;
22129;SDS011;11231;50.746;4.272;2023-09-18T05:35:54;8.13;;;2.40;;
22129;SDS011;11231;50.746;4.272;2023-09-18T05:38:23;8.07;;;2.03;;
22129;SDS011;11231;50.746;4.272;2023-09-18T05:40:49;5.10;;;1.77;;
22129;SDS011;11231;50.746;4.272;2023-09-18T05:43:15;5.47;;;1.83;;
22129;SDS011;11231;50.746;4.272;2023-09-18T05:45:41;5.10;;;2.10;;
22129;SDS011;11231;50.746;4.272;2023-09-18T05:48:07;6.03;;;2.17;;
22129;SDS011;11231;50.746;4.272;2023-09-18T05:50:50;8.60;;;2.20;;
22129;SDS011;11231;50.746;4.272;2023-09-18T05:53:19;6.53;;;1.90;;
22129;SDS011;11231;50.746;4.272;2023-09-18T05:55:52;9.03;;;2.53;;
22129;SDS011;11231;50.746;4.272;2023-09-18T05:58:22;7.03;;;2.30;;
22129;SDS011;11231;50.746;4.272;2023-09-18T06:00:50;6.57;;;2.10;;
22129;SDS011;11231;50.746;4.272;2023-09-18T06:03:22;10.00;;;2.10;;
22129;SDS011;11231;50.746;4.272;2023-09-18T06:05:51;6.60;;;2.20;;
22129;SDS011;11231;50.746;4.272;2023-09-18T06:08:17;6.37;;;2.20;;
22129;SDS011;11231;50.746;4.272;2023-09-18T06:10:44;7.93;;;2.20;;
22129;SDS011;11231;50.746;4.272;2023-09-18T06:13:15;7.40;;;2.30;;
22129;SDS011;11231;50.746;4.272;2023-09-18T06:15:47;6.83;;;2.27;;
22129;SDS011;11231;50.746;4.272;2023-09-18T06:18:21;7.37;;;2.13;;
22129;SDS011;11231;50.746;4.272;2023-09-18T06:20:49;5.80;;;2.53;;
22129;SDS011;11231;50.746;4.272;2023-09-18T06:23:15;12.57;;;2.53;;
22129;SDS011;11231;50.746;4.272;2023-09-18T06:25:41;7.60;;;2.57;;
22129;SDS011;11231;50.746;4.272;2023-09-18T06:28:10;10.07;;;2.67;;
22129;SDS011;11231;50.746;4.272;2023-09-18T06:30:37;6.30;;;2.23;;
22129;SDS011;11231;50.746;4.272;2023-09-18T06:33:04;8.27;;;2.53;;
22129;SDS011;11231;50.746;4.272;2023-09-18T06:35:36;8.57;;;2.60;;
22129;SDS011;11231;50.746;4.272;2023-09-18T06:38:08;8.10;;;2.37;;
22129;SDS011;11231;50.746;4.272;2023-09-18T06:40:37;9.20;;;2.67;;
22129;SDS011;11231;50.746;4.272;2023-09-18T06:43:05;8.37;;;2.30;;
22129;SDS011;11231;50.746;4.272;2023-09-18T06:45:38;7.33;;;2.60;;
22129;SDS011;11231;50.746;4.272;2023-09-18T06:48:08;8.87;;;2.63;;
22129;SDS011;11231;50.746;4.272;2023-09-18T06:50:34;6.70;;;2.87;;
22129;SDS011;11231;50.746;4.272;2023-09-18T06:53:01;6.03;;;2.97;;
22129;SDS011;11231;50.746;4.272;2023-09-18T06:55:28;8.10;;;3.27;;
22129;SDS011;11231;50.746;4.272;2023-09-18T06:58:06;7.67;;;2.87;;
22129;SDS011;11231;50.746;4.272;2023-09-18T07:00:32;9.27;;;2.63;;
22129;SDS011;11231;50.746;4.272;2023-09-18T07:03:02;7.83;;;3.13;;
22129;SDS011;11231;50.746;4.272;2023-09-18T07:05:28;8.70;;;2.93;;
22129;SDS011;11231;50.746;4.272;2023-09-18T07:07:54;6.33;;;2.63;;
22129;SDS011;11231;50.746;4.272;2023-09-18T07:10:22;5.40;;;2.93;;
22129;SDS011;11231;50.746;4.272;2023-09-18T07:12:49;8.00;;;2.83;;
22129;SDS011;11231;50.746;4.272;2023-09-18T07:15:15;9.30;;;2.80;;
22129;SDS011;11231;50.746;4.272;2023-09-18T07:17:43;8.97;;;3.00;;
22129;SDS011;11231;50.746;4.272;2023-09-18T07:20:15;9.70;;;2.53;;
22129;SDS011;11231;50.746;4.272;2023-09-18T07:22:45;7.33;;;2.40;;
22129;SDS011;11231;50.746;4.272;2023-09-18T07:25:18;6.17;;;2.47;;
22129;SDS011;11231;50.746;4.272;2023-09-18T07:27:46;7.83;;;2.33;;
22129;SDS011;11231;50.746;4.272;2023-09-18T07:30:20;9.23;;;2.47;;
22129;SDS011;11231;50.746;4.272;2023-09-18T07:32:56;8.57;;;2.57;;
22129;SDS011;11231;50.746;4.272;2023-09-18T07:35:26;7.43;;;2.33;;
22129;SDS011;11231;50.746;4.272;2023-09-18T07:37:58;6.40;;;2.30;;
22129;SDS011;11231;50.746;4.272;2023-09-18T07:40:24;7.20;;;2.03;;
22129;SDS011;11231;50.746;4.272;2023-09-18T07:42:50;5.65;;;2.00;;
22129;SDS011;11231;50.746;4.272;2023-09-18T07:45:16;7.80;;;2.25;;
22129;SDS011;11231;50.746;4.272;2023-09-18T07:47:46;5.75;;;1.77;;
22129;SDS011;11231;50.746;4.272;2023-09-18T07:50:15;6.97;;;2.28;;
22129;SDS011;11231;50.746;4.272;2023-09-18T07:52:42;3.88;;;1.80;;
22129;SDS011;11231;50.746;4.272;2023-09-18T07:55:08;5.05;;;2.22;;
22129;SDS011;11231;50.746;4.272;2023-09-18T07:57:40;6.18;;;2.38;;
22129;SDS011;11231;50.746;4.272;2023-09-18T08:00:12;6.70;;;2.63;;
22129;SDS011;11231;50.746;4.272;2023-09-18T08:02:41;8.20;;;2.45;;
22129;SDS011;11231;50.746;4.272;2023-09-18T08:05:07;7.10;;;2.35;;
22129;SDS011;11231;50.746;4.272;2023-09-18T08:07:37;6.15;;;2.28;;
22129;SDS011;11231;50.746;4.272;2023-09-18T08:10:03;8.15;;;2.80;;
22129;SDS011;11231;50.746;4.272;2023-09-18T08:12:36;6.78;;;2.60;;
22129;SDS011;11231;50.746;4.272;2023-09-18T08:15:02;8.15;;;2.90;;
22129;SDS011;11231;50.746;4.272;2023-09-18T08:17:28;8.20;;;2.70;;
22129;SDS011;11231;50.746;4.272;2023-09-18T08:19:55;8.90;;;2.50;;
22129;SDS011;11231;50.746;4.272;2023-09-18T08:22:22;11.35;;;2.83;;
22129;SDS011;11231;50.746;4.272;2023-09-18T08:24:48;6.70;;;2.60;;
22129;SDS011;11231;50.746;4.272;2023-09-18T08:27:18;6.60;;;2.60;;
22129;SDS011;11231;50.746;4.272;2023-09-18T08:29:46;9.37;;;2.87;;
22129;SDS011;11231;50.746;4.272;2023-09-18T08:32:12;9.67;;;2.70;;
22129;SDS011;11231;50.746;4.272;2023-09-18T08:34:38;9.57;;;3.00;;
22129;SDS011;11231;50.746;4.272;2023-09-18T08:37:05;10.67;;;3.50;;
22129;SDS011;11231;50.746;4.272;2023-09-18T08:39:31;19.13;;;3.33;;
22129;SDS011;11231;50.746;4.272;2023-09-18T08:42:03;11.20;;;3.20;;
22129;SDS011;11231;50.746;4.272;2023-09-18T08:44:30;9.73;;;3.10;;
22129;SDS011;11231;50.746;4.272;2023-09-18T08:46:56;8.17;;;3.40;;
22129;SDS011;11231;50.746;4.272;2023-09-18T08:49:23;7.37;;;3.30;;
22129;SDS011;11231;50.746;4.272;2023-09-18T08:51:53;9.30;;;3.80;;
22129;SDS011;11231;50.746;4.272;2023-09-18T08:54:23;9.17;;;3.80;;
22129;SDS011;11231;50.746;4.272;2023-09-18T08:56:50;10.97;;;4.10;;
22129;SDS011;11231;50.746;4.272;2023-09-18T08:59:17;7.13;;;3.87;;
22129;SDS011;11231;50.746;4.272;2023-09-18T09:01:47;8.83;;;3.93;;
22129;SDS011;11231;50.746;4.272;2023-09-18T09:04:13;8.97;;;3.63;;
22129;SDS011;11231;50.746;4.272;2023-09-18T09:06:43;10.77;;;3.90;;
22129;SDS011;11231;50.746;4.272;2023-09-18T09:11:40;9.63;;;3.90;;
22129;SDS011;11231;50.746;4.272;2023-09-18T09:14:14;9.90;;;3.43;;
22129;SDS011;11231;50.746;4.272;2023-09-18T09:16:47;10.63;;;4.17;;
22129;SDS011;11231;50.746;4.272;2023-09-18T09:19:17;11.03;;;3.77;;
22129;SDS011;11231;50.746;4.272;2023-09-18T09:21:55;11.80;;;3.80;;
22129;SDS011;11231;50.746;4.272;2023-09-18T09:24:44;11.90;;;4.30;;
22129;SDS011;11231;50.746;4.272;2023-09-18T09:27:10;8.10;;;3.93;;
22129;SDS011;11231;50.746;4.272;2023-09-18T09:29:36;8.07;;;3.50;;
22129;SDS011;11231;50.746;4.272;2023-09-18T09:32:18;10.27;;;3.57;;
22129;SDS011;11231;50.746;4.272;2023-09-18T09:34:45;8.57;;;3.10;;
22129;SDS011;11231;50.746;4.272;2023-09-18T09:37:12;7.70;;;3.20;;
22129;SDS011;11231;50.746;4.272;2023-09-18T09:39:48;12.33;;;3.50;;
22129;SDS011;11231;50.746;4.272;2023-09-18T09:42:18;11.13;;;3.67;;
22129;SDS011;11231;50.746;4.272;2023-09-18T09:45:04;10.07;;;3.40;;
22129;SDS011;11231;50.746;4.272;2023-09-18T09:47:37;11.00;;;3.63;;
22129;SDS011;11231;50.746;4.272;2023-09-18T09:50:13;10.80;;;3.03;;
22129;SDS011;11231;50.746;4.272;2023-09-18T09:52:48;8.17;;;3.30;;
22129;SDS011;11231;50.746;4.272;2023-09-18T09:55:19;11.20;;;3.57;;
22129;SDS011;11231;50.746;4.272;2023-09-18T09:57:53;11.73;;;3.83;;
22129;SDS011;11231;50.746;4.272;2023-09-18T10:00:23;8.13;;;3.60;;
22129;SDS011;11231;50.746;4.272;2023-09-18T10:03:06;11.23;;;3.80;;
22129;SDS011;11231;50.746;4.272;2023-09-18T10:05:42;9.07;;;3.70;;
22129;SDS011;11231;50.746;4.272;2023-09-18T10:08:17;10.53;;;3.63;;
22129;SDS011;11231;50.746;4.272;2023-09-18T10:11:00;7.57;;;3.87;;
22129;SDS011;11231;50.746;4.272;2023-09-18T10:13:57;9.83;;;3.47;;
22129;SDS011;11231;50.746;4.272;2023-09-18T10:16:28;9.87;;;3.57;;
22129;SDS011;11231;50.746;4.272;2023-09-18T10:22:01;10.43;;;3.70;;
22129;SDS011;11231;50.746;4.272;2023-09-18T10:24:45;9.07;;;3.40;;
22129;SDS011;11231;50.746;4.272;2023-09-18T10:27:14;10.77;;;3.47;;
22129;SDS011;11231;50.746;4.272;2023-09-18T10:29:43;11.87;;;3.50;;
22129;SDS011;11231;50.746;4.272;2023-09-18T10:32:10;9.73;;;3.50;;
22129;SDS011;11231;50.746;4.272;2023-09-18T10:34:43;9.77;;;3.87;;
22129;SDS011;11231;50.746;4.272;2023-09-18T10:37:12;8.90;;;3.20;;
22129;SDS011;11231;50.746;4.272;2023-09-18T10:39:41;9.97;;;2.97;;
22129;SDS011;11231;50.746;4.272;2023-09-18T10:42:10;12.17;;;3.37;;
22129;SDS011;11231;50.746;4.272;2023-09-18T10:44:37;11.83;;;3.30;;
22129;SDS011;11231;50.746;4.272;2023-09-18T10:47:06;5.87;;;2.60;;
22129;SDS011;11231;50.746;4.272;2023-09-18T10:49:35;9.13;;;3.00;;
22129;SDS011;11231;50.746;4.272;2023-09-18T10:52:01;9.70;;;3.05;;
22129;SDS011;11231;50.746;4.272;2023-09-18T10:54:29;6.85;;;2.47;;
22129;SDS011;11231;50.746;4.272;2023-09-18T10:56:56;6.10;;;2.20;;
22129;SDS011;11231;50.746;4.272;2023-09-18T10:59:27;8.80;;;2.35;;
22129;SDS011;11231;50.746;4.272;2023-09-18T11:01:53;9.52;;;2.35;;
22129;SDS011;11231;50.746;4.272;2023-09-18T11:04:20;7.00;;;2.58;;
22129;SDS011;11231;50.746;4.272;2023-09-18T11:09:25;5.88;;;2.00;;
22129;SDS011;11231;50.746;4.272;2023-09-18T11:20:09;6.45;;;2.42;;
22129;SDS011;11231;50.746;4.272;2023-09-18T11:23:09;7.88;;;2.75;;
22129;SDS011;11231;50.746;4.272;2023-09-18T11:25:45;5.97;;;2.58;;
22129;SDS011;11231;50.746;4.272;2023-09-18T11:28:23;6.88;;;2.50;;
22129;SDS011;11231;50.746;4.272;2023-09-18T11:30:54;9.07;;;2.63;;
22129;SDS011;11231;50.746;4.272;2023-09-18T11:33:41;7.00;;;2.00;;
22129;SDS011;11231;50.746;4.272;2023-09-18T11:36:28;9.10;;;2.58;;
22129;SDS011;11231;50.746;4.272;2023-09-18T11:39:00;6.72;;;2.15;;
22129;SDS011;11231;50.746;4.272;2023-09-18T11:41:30;7.03;;;2.30;;
22129;SDS011;11231;50.746;4.272;2023-09-18T11:46:54;8.75;;;2.60;;
22129;SDS011;11231;50.746;4.272;2023-09-18T11:49:28;6.88;;;2.20;;
22129;SDS011;11231;50.746;4.272;2023-09-18T11:52:00;6.03;;;2.20;;
22129;SDS011;11231;50.746;4.272;2023-09-18T11:54:30;7.07;;;1.98;;
22129;SDS011;11231;50.746;4.272;2023-09-18T11:57:03;6.18;;;1.85;;
22129;SDS011;11231;50.746;4.272;2023-09-18T11:59:33;8.27;;;1.90;;
22129;SDS011;11231;50.746;4.272;2023-09-18T12:02:01;7.43;;;2.15;;
22129;SDS011;11231;50.746;4.272;2023-09-18T12:04:36;7.07;;;2.30;;
22129;SDS011;11231;50.746;4.272;2023-09-18T12:07:10;7.72;;;1.90;;
22129;SDS011;11231;50.746;4.272;2023-09-18T12:09:36;5.10;;;2.08;;
22129;SDS011;11231;50.746;4.272;2023-09-18T12:12:11;6.05;;;1.90;;
22129;SDS011;11231;50.746;4.272;2023-09-18T12:14:43;4.00;;;1.90;;
22129;SDS011;11231;50.746;4.272;2023-09-18T12:17:14;5.82;;;2.10;;
22129;SDS011;11231;50.746;4.272;2023-09-18T12:19:50;4.82;;;1.92;;
22129;SDS011;11231;50.746;4.272;2023-09-18T12:22:23;6.35;;;2.00;;
22129;SDS011;11231;50.746;4.272;2023-09-18T12:25:13;7.35;;;1.73;;
22129;SDS011;11231;50.746;4.272;2023-09-18T12:27:52;6.57;;;2.10;;
22129;SDS011;11231;50.746;4.272;2023-09-18T12:30:21;5.40;;;2.10;;
22129;SDS011;11231;50.746;4.272;2023-09-18T12:32:53;4.38;;;1.98;;
22129;SDS011;11231;50.746;4.272;2023-09-18T12:35:26;3.42;;;1.80;;
22129;SDS011;11231;50.746;4.272;2023-09-18T12:38:12;4.40;;;1.88;;
22129;SDS011;11231;50.746;4.272;2023-09-18T12:40:52;7.20;;;1.90;;
22129;SDS011;11231;50.746;4.272;2023-09-18T12:43:28;4.95;;;1.98;;
22129;SDS011;11231;50.746;4.272;2023-09-18T12:45:57;6.28;;;2.00;;
22129;SDS011;11231;50.746;4.272;2023-09-18T12:48:27;5.93;;;1.65;;
22129;SDS011;11231;50.746;4.272;2023-09-18T12:50:53;4.40;;;1.70;;
22129;SDS011;11231;50.746;4.272;2023-09-18T12:53:22;5.40;;;1.75;;
22129;SDS011;11231;50.746;4.272;2023-09-18T12:55:52;7.80;;;1.92;;
22129;SDS011;11231;50.746;4.272;2023-09-18T12:58:22;4.05;;;1.90;;
22129;SDS011;11231;50.746;4.272;2023-09-18T13:00:49;7.30;;;1.73;;
22129;SDS011;11231;50.746;4.272;2023-09-18T13:03:16;9.10;;;2.17;;
22129;SDS011;11231;50.746;4.272;2023-09-18T13:05:51;7.55;;;2.15;;
22129;SDS011;11231;50.746;4.272;2023-09-18T13:08:21;6.82;;;1.92;;
22129;SDS011;11231;50.746;4.272;2023-09-18T13:10:52;6.30;;;2.40;;
22129;SDS011;11231;50.746;4.272;2023-09-18T13:13:22;7.60;;;2.00;;
22129;SDS011;11231;50.746;4.272;2023-09-18T13:15:56;5.88;;;2.05;;
22129;SDS011;11231;50.746;4.272;2023-09-18T13:18:27;4.55;;;1.85;;
22129;SDS011;11231;50.746;4.272;2023-09-18T13:20:53;7.32;;;2.10;;
22129;SDS011;11231;50.746;4.272;2023-09-18T13:23:20;8.93;;;2.13;;
22129;SDS011;11231;50.746;4.272;2023-09-18T13:25:58;4.15;;;1.58;;
22129;SDS011;11231;50.746;4.272;2023-09-18T13:28:28;4.50;;;2.10;;
22129;SDS011;11231;50.746;4.272;2023-09-18T13:30:59;4.28;;;2.00;;
22129;SDS011;11231;50.746;4.272;2023-09-18T13:33:31;4.65;;;1.83;;
22129;SDS011;11231;50.746;4.272;2023-09-18T13:35:59;6.53;;;2.10;;
22129;SDS011;11231;50.746;4.272;2023-09-18T13:38:26;4.60;;;1.83;;
22129;SDS011;11231;50.746;4.272;2023-09-18T13:40:52;3.92;;;1.65;;
22129;SDS011;11231;50.746;4.272;2023-09-18T13:43:21;6.32;;;1.90;;
22129;SDS011;11231;50.746;4.272;2023-09-18T13:45:48;6.22;;;1.67;;
22129;SDS011;11231;50.746;4.272;2023-09-18T13:48:22;7.85;;;1.80;;
22129;SDS011;11231;50.746;4.272;2023-09-18T13:50:48;6.47;;;1.73;;
22129;SDS011;11231;50.746;4.272;2023-09-18T13:53:16;5.15;;;1.88;;
22129;SDS011;11231;50.746;4.272;2023-09-18T13:55:45;7.32;;;1.83;;
22129;SDS011;11231;50.746;4.272;2023-09-18T13:58:14;6.47;;;2.00;;
22129;SDS011;11231;50.746;4.272;2023-09-18T14:00:40;8.15;;;2.20;;
22129;SDS011;11231;50.746;4.272;2023-09-18T14:03:08;6.32;;;2.05;;
22129;SDS011;11231;50.746;4.272;2023-09-18T14:05:38;9.50;;;2.33;;
22129;SDS011;11231;50.746;4.272;2023-09-18T14:08:05;5.38;;;2.03;;
22129;SDS011;11231;50.746;4.272;2023-09-18T14:10:33;7.35;;;2.28;;
22129;SDS011;11231;50.746;4.272;2023-09-18T14:12:59;6.40;;;2.15;;
22129;SDS011;11231;50.746;4.272;2023-09-18T14:15:25;8.00;;;2.15;;
22129;SDS011;11231;50.746;4.272;2023-09-18T14:17:53;4.93;;;2.10;;
22129;SDS011;11231;50.746;4.272;2023-09-18T14:20:22;6.15;;;2.20;;
22129;SDS011;11231;50.746;4.272;2023-09-18T14:23:00;7.70;;;2.03;;
22129;SDS011;11231;50.746;4.272;2023-09-18T14:25:32;5.32;;;2.20;;
22129;SDS011;11231;50.746;4.272;2023-09-18T14:27:59;5.80;;;2.13;;
22129;SDS011;11231;50.746;4.272;2023-09-18T14:30:28;6.15;;;2.22;;
22129;SDS011;11231;50.746;4.272;2023-09-18T14:32:57;5.70;;;2.07;;
22129;SDS011;11231;50.746;4.272;2023-09-18T14:35:23;5.83;;;2.13;;
22129;SDS011;11231;50.746;4.272;2023-09-18T14:37:51;5.80;;;1.97;;
22129;SDS011;11231;50.746;4.272;2023-09-18T14:40:22;8.40;;;2.60;;
22129;SDS011;11231;50.746;4.272;2023-09-18T14:42:50;8.07;;;2.60;;
22129;SDS011;11231;50.746;4.272;2023-09-18T14:45:20;4.60;;;2.10;;
22129;SDS011;11231;50.746;4.272;2023-09-18T14:47:50;6.03;;;2.60;;
22129;SDS011;11231;50.746;4.272;2023-09-18T14:50:16;10.47;;;2.30;;
22129;SDS011;11231;50.746;4.272;2023-09-18T14:55:44;7.33;;;2.20;;
22129;SDS011;11231;50.746;4.272;2023-09-18T14:58:13;9.87;;;4.67;;
22129;SDS011;11231;50.746;4.272;2023-09-18T15:00:40;10.13;;;4.63;;
22129;SDS011;11231;50.746;4.272;2023-09-18T15:03:06;7.77;;;2.50;;
22129;SDS011;11231;50.746;4.272;2023-09-18T15:05:34;6.60;;;2.60;;
22129;SDS011;11231;50.746;4.272;2023-09-18T15:08:01;11.43;;;2.90;;
22129;SDS011;11231;50.746;4.272;2023-09-18T15:10:31;4.43;;;1.90;;
22129;SDS011;11231;50.746;4.272;2023-09-18T15:12:58;6.20;;;2.20;;
22129;SDS011;11231;50.746;4.272;2023-09-18T15:15:26;5.07;;;2.20;;
22129;SDS011;11231;50.746;4.272;2023-09-18T15:17:55;5.83;;;2.17;;
22129;SDS011;11231;50.746;4.272;2023-09-18T15:20:27;7.67;;;3.33;;
22129;SDS011;11231;50.746;4.272;2023-09-18T15:22:53;5.80;;;2.33;;
22129;SDS011;11231;50.746;4.272;2023-09-18T15:25:24;11.03;;;4.53;;